Time;durP1;ratioP1;P1;durP2;ratioP2;P2;SDS_P1;SDS_P2;PMS_P1;PMS_P2;Temp;Humidity;BMP_temperature;BMP_pressure;BME280_temperature;BME280_humidity;BME280_pressure;Samples;Min_cycle;Max_cycle;Signal;HPM_P1;HPM_P2
2023/08/12 00:00:36;;;;;;;9.00;4.30;;;;;;;18.91;62.66;101565.46;107496;1251;108386;-59
2023/08/12 00:03:24;;;;;;;9.30;4.10;;;;;;;18.73;63.08;101568.02;107494;1251;97742;-59
2023/08/12 00:05:53;;;;;;;10.20;4.30;;;;;;;18.61;63.54;101568.95;107541;1254;97751;-58
2023/08/12 00:08:22;;;;;;;8.40;4.80;;;;;;;18.55;63.42;101570.86;107520;1254;111147;-58
2023/08/12 00:10:51;;;;;;;7.60;4.00;;;;;;;18.57;63.14;101572.52;107567;1254;110159;-58
2023/08/12 00:13:20;;;;;;;7.30;4.40;;;;;;;18.60;62.94;101575.27;107541;1254;107287;-59
2023/08/12 00:15:49;;;;;;;6.90;4.40;;;;;;;18.64;62.71;101576.64;107575;1254;97820;-59
2023/08/12 00:18:17;;;;;;;10.00;5.00;;;;;;;18.68;62.65;101579.50;107555;1256;97853;-60
2023/08/12 00:20:46;;;;;;;7.90;4.30;;;;;;;18.70;62.68;101580.73;107554;1257;112555;-58
2023/08/12 00:23:15;;;;;;;8.50;4.20;;;;;;;18.71;62.80;101580.00;107514;1254;109399;-58
2023/08/12 00:25:43;;;;;;;5.80;4.30;;;;;;;18.71;62.66;101577.87;107542;1254;108621;-62
2023/08/12 00:28:12;;;;;;;5.70;4.30;;;;;;;18.72;62.75;101582.77;107627;1254;97909;-58
2023/08/12 00:30:41;;;;;;;7.10;4.90;;;;;;;18.72;62.77;101585.91;107564;1254;97847;-58
2023/08/12 00:33:10;;;;;;;8.00;4.90;;;;;;;18.74;62.74;101584.41;107404;1254;110538;-60
2023/08/12 00:35:38;;;;;;;7.40;4.50;;;;;;;18.75;62.68;101583.27;107532;1254;109746;-59
2023/08/12 00:38:07;;;;;;;12.30;4.40;;;;;;;18.75;62.82;101585.73;107512;1254;106947;-60
2023/08/12 00:40:35;;;;;;;15.60;3.90;;;;;;;18.74;62.78;101583.15;107469;1251;97832;-58
2023/08/12 00:43:03;;;;;;;26.60;6.00;;;;;;;18.71;62.64;101586.56;107508;1251;98454;-59
2023/08/12 00:45:33;;;;;;;19.40;5.50;;;;;;;18.66;62.83;101588.02;107472;1254;111951;-59
2023/08/12 00:48:04;;;;;;;10.70;5.20;;;;;;;18.63;62.84;101590.91;107465;1254;108343;-58
2023/08/12 00:50:37;;;;;;;16.20;5.70;;;;;;;18.60;63.11;101592.48;107520;1253;108615;-58
2023/08/12 00:53:06;;;;;;;10.30;5.00;;;;;;;18.56;63.30;101590.53;107546;1251;97733;-61
2023/08/12 00:55:35;;;;;;;15.90;7.40;;;;;;;18.54;63.42;101594.39;107605;1254;97829;-58
2023/08/12 00:58:04;;;;;;;15.90;6.00;;;;;;;18.54;63.27;101594.45;107564;1254;110652;-59
2023/08/12 01:00:33;;;;;;;12.50;5.80;;;;;;;18.52;64.11;101593.42;107482;1251;108116;-59
2023/08/12 01:03:02;;;;;;;11.50;5.30;;;;;;;18.47;64.06;101596.11;107513;1251;108678;-59
2023/08/12 01:05:31;;;;;;;13.40;5.50;;;;;;;18.44;64.02;101596.95;107387;1251;97847;-58
2023/08/12 01:07:59;;;;;;;16.90;5.60;;;;;;;18.42;63.99;101596.13;107423;1251;97815;-59
2023/08/12 01:10:34;;;;;;;9.80;4.90;;;;;;;18.42;64.06;101600.13;107471;1250;111457;-59
2023/08/12 01:13:30;;;;;;;13.90;5.40;;;;;;;18.42;63.91;101597.50;107499;1251;108635;-60
2023/08/12 01:16:04;;;;;;;8.40;4.50;;;;;;;18.44;63.99;101600.05;107503;1254;108784;-60
2023/08/12 01:18:32;;;;;;;;;;;;;;;18.44;64.02;101602.10;107541;1256;97926;-59
2023/08/12 01:21:03;;;;;;;7.40;4.90;;;;;;;18.39;63.80;101604.98;107541;1251;97769;-59
2023/08/12 01:23:31;;;;;;;12.10;5.00;;;;;;;18.37;63.99;101605.73;107442;1251;111218;-59
2023/08/12 01:26:00;;;;;;;12.00;4.80;;;;;;;18.35;63.93;101606.27;107493;1254;110089;-59
2023/08/12 01:28:28;;;;;;;14.60;5.60;;;;;;;18.35;63.97;101609.73;107471;1255;108287;-59
2023/08/12 01:31:16;;;;;;;7.00;4.60;;;;;;;18.35;63.97;101607.42;107575;1254;97814;-60
2023/08/12 01:34:02;;;;;;;10.30;4.90;;;;;;;18.36;64.14;101606.73;107564;1253;97713;-58
2023/08/12 01:36:35;;;;;;;14.40;4.90;;;;;;;18.32;64.64;101609.83;107488;1254;111986;-58
2023/08/12 01:39:06;;;;;;;19.40;5.30;;;;;;;18.20;65.28;101607.52;107568;1254;109226;-58
2023/08/12 01:41:35;;;;;;;12.10;5.50;;;;;;;18.07;65.61;101614.07;107476;1253;108205;-58
2023/08/12 01:44:04;;;;;;;13.10;4.90;;;;;;;17.95;66.16;101612.61;107583;1254;97941;-60
2023/08/12 01:46:32;;;;;;;7.00;5.00;;;;;;;17.82;66.89;101618.06;107568;1251;97912;-59
2023/08/12 01:49:01;;;;;;;9.80;5.30;;;;;;;17.71;67.60;101616.10;107489;1251;112085;-59
2023/08/12 01:51:30;;;;;;;9.00;4.80;;;;;;;17.57;68.19;101615.61;107561;1254;108394;-59
2023/08/12 01:53:59;;;;;;;12.00;4.90;;;;;;;17.42;69.36;101614.45;107557;1257;108343;-60
2023/08/12 01:56:28;;;;;;;8.30;4.90;;;;;;;17.28;70.15;101614.80;107426;1254;97855;-59
2023/08/12 01:58:56;;;;;;;11.90;5.60;;;;;;;17.15;70.92;101615.60;107579;1253;97768;-59
2023/08/12 02:01:26;;;;;;;9.80;5.50;;;;;;;17.04;71.50;101618.03;107463;1251;111976;-59
2023/08/12 02:03:54;;;;;;;7.30;5.10;;;;;;;16.93;72.19;101616.80;107551;1254;108729;-59
2023/08/12 02:06:23;;;;;;;8.80;5.60;;;;;;;16.85;72.62;101616.45;107379;1257;108277;-58
2023/08/12 02:08:51;;;;;;;12.60;5.60;;;;;;;16.78;72.71;101618.52;107480;1254;97815;-59
2023/08/12 02:11:20;;;;;;;8.00;5.90;;;;;;;16.78;72.33;101621.02;107621;1251;97812;-59
2023/08/12 02:13:49;;;;;;;9.90;5.60;;;;;;;16.76;72.37;101626.85;107411;1251;111117;-59
2023/08/12 02:16:17;;;;;;;9.90;6.00;;;;;;;16.74;72.31;101635.48;107493;1256;109968;-59
2023/08/12 02:18:46;;;;;;;10.10;6.40;;;;;;;16.71;72.57;101629.82;107516;1254;107709;-59
2023/08/12 02:21:14;;;;;;;9.80;5.60;;;;;;;16.66;72.83;101632.70;107509;1254;97838;-57
2023/08/12 02:23:44;;;;;;;8.40;5.50;;;;;;;16.65;72.68;101636.42;107559;1254;97890;-58
2023/08/12 02:26:12;;;;;;;11.00;5.80;;;;;;;16.65;72.35;101641.86;107464;1254;112043;-59
2023/08/12 02:28:40;;;;;;;9.70;6.30;;;;;;;16.66;72.79;101645.95;107508;1255;109591;-58
2023/08/12 02:31:08;;;;;;;13.00;5.50;;;;;;;16.68;72.18;101651.52;107465;1254;107543;-59
2023/08/12 02:33:37;;;;;;;12.40;6.70;;;;;;;16.74;71.82;101653.48;107611;1256;97743;-59
2023/08/12 02:36:05;;;;;;;9.30;6.30;;;;;;;16.79;71.36;101646.61;107584;1252;99514;-57
2023/08/12 02:38:34;;;;;;;13.30;5.30;;;;;;;16.85;71.25;101645.64;107451;1256;112406;-59
2023/08/12 02:41:02;;;;;;;15.20;6.20;;;;;;;16.91;70.99;101643.41;107522;1254;109830;-58
2023/08/12 02:43:31;;;;;;;11.20;5.60;;;;;;;16.94;70.73;101640.61;107505;1254;108222;-61
2023/08/12 02:45:59;;;;;;;12.10;5.30;;;;;;;16.93;70.55;101643.23;107488;1250;97941;-59
2023/08/12 02:48:28;;;;;;;10.90;5.30;;;;;;;16.94;70.40;101646.78;107449;1254;97808;-60
2023/08/12 02:50:57;;;;;;;12.60;5.40;;;;;;;16.95;70.89;101647.02;107482;1251;111798;-58
2023/08/12 02:53:25;;;;;;;19.60;5.30;;;;;;;16.91;70.73;101650.48;107441;1251;109604;-58
2023/08/12 02:55:54;;;;;;;15.00;5.80;;;;;;;16.89;70.61;101656.42;107578;1251;108131;-58
2023/08/12 02:58:22;;;;;;;9.90;6.00;;;;;;;16.91;70.41;101655.74;107430;1253;97822;-58
2023/08/12 03:00:51;;;;;;;8.30;5.30;;;;;;;16.96;70.11;101653.14;107544;1251;98392;-58
2023/08/12 03:03:19;;;;;;;10.90;5.70;;;;;;;16.99;69.92;101650.75;107470;1251;111731;-59
2023/08/12 03:05:49;;;;;;;9.10;5.70;;;;;;;17.02;69.77;101650.30;107500;1251;112008;-58
2023/08/12 03:08:17;;;;;;;8.00;5.90;;;;;;;17.06;69.74;101650.64;107619;1250;106642;-59
2023/08/12 03:10:46;;;;;;;11.90;5.80;;;;;;;17.08;69.54;101651.73;107440;1254;97897;-58
2023/08/12 03:13:15;;;;;;;18.20;6.40;;;;;;;17.09;69.44;101650.10;107557;1254;97827;-59
2023/08/12 03:15:44;;;;;;;15.50;6.20;;;;;;;17.10;69.32;101653.89;107523;1253;111322;-59
2023/08/12 03:18:13;;;;;;;16.50;6.20;;;;;;;17.12;69.27;101652.61;107518;1255;109876;-59
2023/08/12 03:20:41;;;;;;;15.40;6.20;;;;;;;17.14;69.28;101652.89;107446;1255;108267;-58
2023/08/12 03:23:09;;;;;;;13.00;5.60;;;;;;;17.16;69.13;101650.15;107539;1254;97983;-58
2023/08/12 03:25:38;;;;;;;13.00;5.80;;;;;;;17.18;68.99;101649.33;107575;1251;97921;-59
2023/08/12 03:28:07;;;;;;;10.10;6.30;;;;;;;17.19;68.88;101649.31;107482;1251;111884;-59
2023/08/12 03:30:36;;;;;;;11.00;6.10;;;;;;;17.19;69.18;101647.67;107548;1251;109911;-59
2023/08/12 03:33:05;;;;;;;14.80;6.40;;;;;;;17.16;69.14;101648.16;107462;1250;108002;-57
2023/08/12 03:35:34;;;;;;;11.60;6.80;;;;;;;17.10;69.17;101647.67;107563;1254;97917;-59
2023/08/12 03:38:03;;;;;;;9.80;6.00;;;;;;;17.07;69.11;101648.34;107460;1254;97800;-59
2023/08/12 03:40:38;;;;;;;15.70;6.80;;;;;;;17.09;69.17;101648.17;107456;1254;111748;-60
2023/08/12 03:43:08;;;;;;;16.40;6.60;;;;;;;17.13;69.14;101653.33;107618;1256;108776;-59
2023/08/12 03:45:42;;;;;;;11.00;6.60;;;;;;;17.14;68.98;101652.93;107520;1254;108197;-59
2023/08/12 03:48:12;;;;;;;11.50;6.30;;;;;;;17.11;69.54;101650.65;107541;1254;97912;-59
2023/08/12 03:50:42;;;;;;;14.00;6.70;;;;;;;17.08;69.86;101650.64;107537;1251;97890;-59
2023/08/12 03:53:11;;;;;;;16.00;6.90;;;;;;;17.04;70.15;101649.76;107470;1251;112400;-59
2023/08/12 03:55:39;;;;;;;10.90;5.60;;;;;;;16.99;71.10;101648.14;107467;1251;108527;-59
2023/08/12 03:58:09;;;;;;;22.10;12.60;;;;;;;16.91;71.30;101652.30;107486;1254;108198;-59
2023/08/12 04:00:42;;;;;;;13.00;7.20;;;;;;;16.83;72.08;101654.92;107437;1253;97870;-59
2023/08/12 04:03:12;;;;;;;7.80;6.20;;;;;;;16.74;72.46;101656.23;107395;1254;97854;-59
2023/08/12 04:05:49;;;;;;;11.60;6.30;;;;;;;16.67;73.38;101657.27;107552;1256;111832;-59
2023/08/12 04:08:19;;;;;;;12.10;6.60;;;;;;;16.62;73.39;101656.95;107588;1251;107812;-59
2023/08/12 04:10:48;;;;;;;10.90;6.80;;;;;;;16.57;73.57;101656.02;107521;1251;108509;-58
2023/08/12 04:13:16;;;;;;;13.70;7.40;;;;;;;16.56;73.51;101653.95;107488;1251;97818;-58
2023/08/12 04:15:50;;;;;;;12.10;8.40;;;;;;;16.58;73.68;101654.36;107504;1250;98412;-58
2023/08/12 04:18:18;;;;;;;11.40;6.00;;;;;;;16.58;73.53;101656.84;107549;1251;110302;-58
2023/08/12 04:20:49;;;;;;;14.40;6.00;;;;;;;16.63;73.30;101658.91;107520;1251;109663;-60
2023/08/12 04:23:18;;;;;;;12.10;6.30;;;;;;;16.66;73.15;101659.86;107488;1251;108694;-58
2023/08/12 04:25:48;;;;;;;11.90;5.70;;;;;;;16.69;72.84;101664.62;107593;1251;97794;-60
2023/08/12 04:28:16;;;;;;;15.00;6.00;;;;;;;16.74;72.66;101665.44;107610;1251;97739;-59
2023/08/12 04:30:47;;;;;;;10.50;5.50;;;;;;;16.80;72.38;101666.31;107460;1254;111734;-57
2023/08/12 04:33:17;;;;;;;9.30;5.90;;;;;;;16.86;72.20;101666.71;107607;1251;109686;-58
2023/08/12 04:35:46;;;;;;;17.40;6.70;;;;;;;16.95;71.91;101664.67;107478;1256;105755;-60
2023/08/12 04:38:15;;;;;;;9.90;6.40;;;;;;;17.01;71.68;101664.70;107508;1253;97829;-59
2023/08/12 04:40:44;;;;;;;11.70;5.70;;;;;;;17.05;71.54;101667.58;107543;1255;97711;-59
2023/08/12 04:43:13;;;;;;;12.50;6.30;;;;;;;17.09;71.43;101667.06;107657;1251;112940;-59
2023/08/12 04:45:47;;;;;;;18.10;6.80;;;;;;;17.15;71.11;101669.46;107470;1253;109935;-59
2023/08/12 04:48:18;;;;;;;16.60;6.00;;;;;;;17.20;70.93;101672.74;107348;1254;108085;-60
2023/08/12 04:50:46;;;;;;;11.20;5.90;;;;;;;17.25;70.74;101669.92;107489;1254;97698;-59
2023/08/12 04:53:18;;;;;;;11.40;6.20;;;;;;;17.29;70.37;101669.16;107571;1251;98386;-60
2023/08/12 04:55:50;;;;;;;9.10;5.20;;;;;;;17.34;70.04;101674.56;107546;1254;111480;-59
2023/08/12 04:58:19;;;;;;;11.50;5.50;;;;;;;17.38;69.73;101672.24;107613;1251;109905;-59
2023/08/12 05:00:50;;;;;;;10.00;5.20;;;;;;;17.39;69.60;101680.25;107474;1251;108370;-60
2023/08/12 05:03:19;;;;;;;14.00;5.30;;;;;;;17.42;69.37;101684.14;107533;1254;97841;-58
2023/08/12 05:05:51;;;;;;;14.00;6.00;;;;;;;17.43;69.20;101683.61;107564;1253;97844;-58
2023/08/12 05:08:21;;;;;;;10.00;5.70;;;;;;;17.42;69.14;101689.01;107533;1253;111208;-59
2023/08/12 05:10:50;;;;;;;10.50;5.50;;;;;;;17.43;68.97;101689.15;107575;1250;108195;-59
2023/08/12 05:13:18;;;;;;;10.90;5.40;;;;;;;17.50;69.28;101695.11;107418;1250;108261;-59
2023/08/12 05:15:48;;;;;;;10.40;5.30;;;;;;;17.56;69.05;101689.92;107595;1251;97931;-63
2023/08/12 05:18:17;;;;;;;13.80;5.50;;;;;;;17.66;69.58;101691.75;107403;1252;97954;-59
2023/08/12 05:20:45;;;;;;;10.60;4.60;;;;;;;17.76;69.30;101694.40;107381;1253;112218;-58
2023/08/12 05:23:14;;;;;;;11.50;5.00;;;;;;;17.85;68.93;101690.56;107524;1253;109423;-59
2023/08/12 05:25:43;;;;;;;13.00;5.00;;;;;;;17.91;68.67;101689.91;107580;1256;106795;-59
2023/08/12 05:28:11;;;;;;;11.50;5.30;;;;;;;17.99;68.21;101685.66;107303;1254;97936;-59
2023/08/12 05:30:40;;;;;;;12.70;6.00;;;;;;;18.07;68.02;101689.88;107570;1254;97815;-58
2023/08/12 05:33:08;;;;;;;8.40;5.70;;;;;;;18.14;67.44;101686.45;107516;1253;111607;-61
2023/08/12 05:35:37;;;;;;;13.20;5.00;;;;;;;18.19;67.01;101684.80;107612;1254;109288;-59
2023/08/12 05:38:06;;;;;;;10.00;4.30;;;;;;;18.20;66.71;101682.31;107595;1254;107419;-57
2023/08/12 05:40:34;;;;;;;9.30;4.60;;;;;;;18.24;66.73;101678.45;107467;1254;97863;-58
2023/08/12 05:43:03;;;;;;;9.80;4.90;;;;;;;18.29;66.44;101679.25;107492;1251;97804;-59
2023/08/12 05:45:32;;;;;;;8.80;4.50;;;;;;;18.34;66.29;101675.25;107415;1254;111105;-59
2023/08/12 05:48:00;;;;;;;14.90;5.70;;;;;;;18.39;66.12;101672.70;107562;1251;109633;-58
2023/08/12 05:50:28;;;;;;;13.90;4.80;;;;;;;18.44;65.83;101669.39;107431;1252;107630;-60
2023/08/12 05:52:57;;;;;;;13.50;4.00;;;;;;;18.48;65.70;101671.55;107498;1254;97899;-59
2023/08/12 05:55:25;;;;;;;11.80;4.50;;;;;;;18.49;65.52;101666.78;107562;1256;97896;-59
2023/08/12 05:57:54;;;;;;;8.20;4.40;;;;;;;18.51;65.65;101665.25;107590;1254;113005;-59
2023/08/12 06:00:22;;;;;;;8.60;4.30;;;;;;;18.51;65.49;101663.82;107547;1254;108853;-61
2023/08/12 06:02:51;;;;;;;10.90;3.80;;;;;;;18.54;65.71;101661.30;107582;1254;108149;-59
2023/08/12 06:05:20;;;;;;;13.40;4.40;;;;;;;18.61;65.73;101666.16;107540;1252;97704;-59
2023/08/12 06:07:48;;;;;;;8.50;4.20;;;;;;;18.67;65.57;101666.05;107524;1251;97803;-59
2023/08/12 06:10:17;;;;;;;8.50;4.40;;;;;;;18.71;65.63;101664.70;107456;1251;112079;-58
2023/08/12 06:12:46;;;;;;;8.80;4.70;;;;;;;18.74;65.34;101663.95;107415;1251;109967;-57
2023/08/12 06:15:14;;;;;;;10.40;4.30;;;;;;;18.76;65.28;101667.41;107426;1251;108407;-59
2023/08/12 06:17:42;;;;;;;7.20;4.90;;;;;;;18.80;65.32;101670.30;107502;1254;97947;-59
2023/08/12 06:20:12;;;;;;;11.40;5.90;;;;;;;18.82;64.90;101669.90;107527;1251;98417;-59
2023/08/12 06:22:40;;;;;;;7.60;5.00;;;;;;;18.86;65.12;101671.30;107569;1254;111454;-60
2023/08/12 06:25:08;;;;;;;13.60;4.20;;;;;;;18.90;64.85;101672.33;107531;1253;109635;-60
2023/08/12 06:27:37;;;;;;;9.30;4.70;;;;;;;18.95;64.74;101667.55;107462;1253;108161;-59
2023/08/12 06:30:06;;;;;;;5.90;3.90;;;;;;;18.97;64.59;101667.69;107479;1252;97800;-58
2023/08/12 06:32:35;;;;;;;9.70;4.50;;;;;;;19.01;64.64;101665.88;107614;1253;97809;-58
2023/08/12 06:35:04;;;;;;;8.40;4.30;;;;;;;19.05;64.36;101662.13;107551;1253;112135;-59
2023/08/12 06:37:33;;;;;;;10.60;4.60;;;;;;;19.13;64.64;101664.59;107576;1251;109721;-58
2023/08/12 06:40:03;;;;;;;13.30;5.00;;;;;;;19.17;64.23;101666.31;107459;1251;108174;-60
2023/08/12 06:42:31;;;;;;;12.30;4.30;;;;;;;19.20;64.23;101666.96;107464;1251;97749;-59
2023/08/12 06:45:00;;;;;;;6.70;4.60;;;;;;;19.24;63.79;101664.54;107446;1251;98402;-60
2023/08/12 06:47:29;;;;;;;12.10;4.60;;;;;;;19.31;63.80;101661.23;107526;1251;110890;-59
2023/08/12 06:49:58;;;;;;;7.30;4.50;;;;;;;19.41;63.74;101659.96;107524;1254;110404;-59
2023/08/12 06:52:27;;;;;;;9.30;4.20;;;;;;;19.48;63.30;101661.58;107542;1250;108623;-58
2023/08/12 06:54:55;;;;;;;7.70;4.40;;;;;;;19.53;62.92;101664.64;107489;1251;97925;-60
2023/08/12 06:57:24;;;;;;;8.80;5.60;;;;;;;19.57;62.56;101663.64;107530;1251;98392;-60
2023/08/12 06:59:53;;;;;;;12.70;4.50;;;;;;;19.62;62.60;101666.70;107566;1254;110749;-60
2023/08/12 07:02:21;;;;;;;6.80;3.80;;;;;;;19.69;62.27;101666.48;107492;1251;109997;-61
2023/08/12 07:04:50;;;;;;;9.80;4.00;;;;;;;19.75;62.02;101666.56;107563;1251;108633;-59
2023/08/12 07:07:19;;;;;;;7.50;4.40;;;;;;;19.82;61.92;101663.85;107399;1251;97870;-59
2023/08/12 07:09:47;;;;;;;6.70;3.80;;;;;;;19.92;62.20;101659.85;107472;1254;98099;-59
2023/08/12 07:12:16;;;;;;;6.40;4.30;;;;;;;20.05;61.68;101659.86;107520;1251;111983;-60
2023/08/12 07:14:44;;;;;;;9.80;4.00;;;;;;;20.12;60.70;101658.49;107508;1251;111136;-58
2023/08/12 07:17:12;;;;;;;8.90;4.30;;;;;;;20.20;60.62;101653.88;107456;1254;107098;-59
2023/08/12 07:19:41;;;;;;;5.70;4.10;;;;;;;20.30;60.56;101656.19;107515;1254;97689;-60
2023/08/12 07:22:09;;;;;;;5.70;3.60;;;;;;;20.47;60.43;101649.16;107515;1251;98263;-59
2023/08/12 07:24:38;;;;;;;4.70;3.10;;;;;;;20.59;59.74;101649.21;107533;1251;111051;-58
2023/08/12 07:27:06;;;;;;;11.70;3.80;;;;;;;20.67;59.26;101646.84;107546;1251;109915;-59
2023/08/12 07:29:35;;;;;;;6.20;3.40;;;;;;;20.71;58.13;101650.16;107557;1254;108202;-60
2023/08/12 07:32:04;;;;;;;5.50;3.50;;;;;;;20.77;58.21;101649.91;107522;1251;98004;-60
2023/08/12 07:34:32;;;;;;;4.90;3.30;;;;;;;20.81;58.21;101646.09;107534;1253;97806;-59
2023/08/12 07:37:01;;;;;;;8.90;4.80;;;;;;;20.91;58.46;101644.05;107510;1254;111775;-60
2023/08/12 07:39:29;;;;;;;9.40;3.60;;;;;;;21.02;58.01;101646.90;107550;1251;109851;-59
2023/08/12 07:41:58;;;;;;;6.90;4.00;;;;;;;21.10;57.27;101638.63;107441;1254;108877;-59
2023/08/12 07:44:26;;;;;;;8.40;3.80;;;;;;;21.18;56.98;101636.27;107510;1254;97851;-58
2023/08/12 07:46:55;;;;;;;7.70;3.20;;;;;;;21.30;56.64;101637.06;107532;1253;97693;-59
2023/08/12 07:49:23;;;;;;;4.00;3.00;;;;;;;21.40;56.04;101636.99;107589;1251;112233;-61
2023/08/12 07:51:52;;;;;;;5.00;3.10;;;;;;;21.56;55.73;101633.86;107585;1251;109233;-60
2023/08/12 07:54:20;;;;;;;3.40;2.80;;;;;;;21.63;55.47;101633.98;107510;1254;107324;-59
2023/08/12 07:56:49;;;;;;;9.50;3.50;;;;;;;21.75;55.57;101629.56;107500;1254;97842;-60
2023/08/12 07:59:18;;;;;;;12.50;3.60;;;;;;;21.85;55.53;101631.34;107585;1251;98375;-59
2023/08/12 08:01:46;;;;;;;7.30;2.30;;;;;;;21.99;55.04;101633.58;107560;1251;111602;-59
2023/08/12 08:04:15;;;;;;;5.50;2.50;;;;;;;22.11;53.25;101631.16;107558;1253;109283;-60
2023/08/12 08:06:44;;;;;;;3.50;2.90;;;;;;;22.22;52.87;101631.20;107510;1255;108018;-59
2023/08/12 08:09:12;;;;;;;4.90;2.70;;;;;;;22.37;52.02;101631.39;107557;1254;97838;-59
2023/08/12 08:11:40;;;;;;;8.30;2.30;;;;;;;22.50;51.25;101635.50;107575;1253;97806;-59
2023/08/12 08:14:09;;;;;;;7.00;2.90;;;;;;;22.59;50.77;101627.38;107504;1254;112313;-60
2023/08/12 08:16:40;;;;;;;6.40;3.20;;;;;;;22.71;50.58;101626.64;107494;1254;109894;-60
2023/08/12 08:19:09;;;;;;;5.50;2.10;;;;;;;22.80;50.83;101625.13;107520;1254;107478;-59
2023/08/12 08:21:40;;;;;;;3.80;2.00;;;;;;;22.92;50.79;101623.71;107568;1253;97804;-60
2023/08/12 08:24:12;;;;;;;4.00;2.20;;;;;;;23.03;49.94;101633.35;107552;1251;97847;-60
2023/08/12 08:26:41;;;;;;;2.50;2.00;;;;;;;23.09;49.57;101631.96;107559;1254;110870;-59
2023/08/12 08:29:09;;;;;;;11.20;2.70;;;;;;;23.09;48.64;101637.75;107541;1253;109601;-60
2023/08/12 08:31:38;;;;;;;4.80;2.60;;;;;;;23.02;48.42;101632.02;107502;1252;108220;-60
2023/08/12 08:34:07;;;;;;;4.70;2.20;;;;;;;23.01;48.49;101630.83;107559;1251;97992;-59
2023/08/12 08:36:36;;;;;;;7.30;2.60;;;;;;;23.02;48.22;101630.64;107509;1251;97691;-59
2023/08/12 08:39:04;;;;;;;24.50;3.20;;;;;;;23.11;47.37;101626.02;107479;1253;111833;-60
2023/08/12 08:41:38;;;;;;;11.90;2.30;;;;;;;23.18;47.85;101618.10;107537;1253;109427;-60
2023/08/12 08:44:09;;;;;;;4.80;2.80;;;;;;;23.35;47.39;101620.45;107521;1254;107451;-60
2023/08/12 08:46:38;;;;;;;4.80;2.40;;;;;;;23.46;46.77;101615.15;107555;1251;97825;-59
2023/08/12 08:49:07;;;;;;;3.50;2.20;;;;;;;23.55;46.52;101613.76;107455;1251;97778;-58
2023/08/12 08:51:36;;;;;;;6.80;2.40;;;;;;;23.74;46.50;101604.52;107675;1251;112332;-59
2023/08/12 08:54:05;;;;;;;6.90;2.30;;;;;;;24.01;46.74;101611.31;107513;1251;109313;-58
2023/08/12 08:56:34;;;;;;;6.90;2.90;;;;;;;24.15;44.84;101611.66;107491;1251;108543;-59
2023/08/12 08:59:14;;;;;;;5.80;2.80;;;;;;;24.34;45.13;101607.10;107456;1254;97930;-58
2023/08/12 09:01:46;;;;;;;9.90;3.70;;;;;;;24.57;43.68;101614.25;107526;1250;97934;-59
2023/08/12 09:04:16;;;;;;;6.00;2.50;;;;;;;24.67;42.23;101608.17;107497;1254;112414;-59
2023/08/12 09:06:46;;;;;;;9.10;2.40;;;;;;;24.80;43.01;101608.94;107510;1251;109056;-61
2023/08/12 09:09:19;;;;;;;7.20;2.00;;;;;;;25.07;42.13;101606.77;107527;1254;107577;-58
2023/08/12 09:11:50;;;;;;;2.60;1.90;;;;;;;25.43;40.89;101606.53;107367;1252;97831;-60
2023/08/12 09:14:20;;;;;;;4.20;2.10;;;;;;;25.76;39.96;101604.91;107585;1255;97704;-58
2023/08/12 09:16:48;;;;;;;4.90;3.80;;;;;;;26.00;39.42;101610.84;107659;1251;111637;-61
2023/08/12 09:19:17;;;;;;;6.50;2.50;;;;;;;26.08;39.73;101600.71;107484;1250;109667;-60
2023/08/12 09:21:53;;;;;;;2.40;2.10;;;;;;;26.41;40.09;101598.77;107551;1254;108671;-59
2023/08/12 09:24:25;;;;;;;3.50;2.10;;;;;;;26.82;38.97;101595.27;107501;1251;97834;-59
2023/08/12 09:26:57;;;;;;;6.40;2.90;;;;;;;26.88;38.72;101596.71;107528;1252;97881;-60
2023/08/12 09:29:34;;;;;;;3.90;2.10;;;;;;;26.79;37.67;101597.63;107572;1254;111887;-60
2023/08/12 09:32:17;;;;;;;19.40;13.30;;;;;;;27.03;38.05;101595.51;107576;1252;108945;-60
2023/08/12 09:34:47;;;;;;;6.50;2.00;;;;;;;27.51;37.22;101591.05;107588;1254;107208;-59
2023/08/12 09:37:16;;;;;;;4.50;2.60;;;;;;;28.11;36.57;101594.88;107594;1252;97835;-59
2023/08/12 09:39:44;;;;;;;4.70;1.80;;;;;;;28.73;34.72;101589.16;107541;1251;98367;-59
2023/08/12 09:42:13;;;;;;;8.20;2.00;;;;;;;29.25;33.70;101585.34;107548;1255;112210;-60
2023/08/12 09:44:42;;;;;;;6.00;2.10;;;;;;;29.46;32.33;101582.55;107649;1256;109899;-59
2023/08/12 09:47:11;;;;;;;8.70;2.70;;;;;;;30.00;32.33;101576.90;107272;1251;386851;-59
2023/08/12 09:49:40;;;;;;;10.20;2.00;;;;;;;30.40;33.14;101581.25;107550;1254;98559;-60
2023/08/12 09:52:09;;;;;;;6.10;3.90;;;;;;;30.17;32.59;101582.29;107463;1254;97677;-60
2023/08/12 09:54:39;;;;;;;5.70;2.70;;;;;;;29.68;32.38;101582.34;107510;1253;112744;-59
2023/08/12 09:57:11;;;;;;;6.20;3.10;;;;;;;29.17;33.22;101584.38;107714;1251;110083;-61
2023/08/12 09:59:41;;;;;;;3.50;1.80;;;;;;;29.03;32.73;101583.59;107463;1254;108856;-60
2023/08/12 10:02:18;;;;;;;5.50;2.00;;;;;;;29.75;32.91;101574.77;107531;1250;97907;-59
2023/08/12 10:04:50;;;;;;;5.10;1.60;;;;;;;30.74;31.95;101572.13;107564;1256;97755;-60
2023/08/12 10:07:20;;;;;;;5.10;1.90;;;;;;;31.65;30.77;101565.63;107476;1251;110923;-61
2023/08/12 10:09:49;;;;;;;6.30;2.30;;;;;;;32.51;28.55;101568.73;107554;1254;108547;-61
2023/08/12 10:12:19;;;;;;;5.60;1.60;;;;;;;32.67;27.46;101570.49;107506;1253;107517;-60
2023/08/12 10:14:48;;;;;;;3.50;1.90;;;;;;;32.35;28.68;101564.27;107634;1254;97851;-61
2023/08/12 10:17:17;;;;;;;3.30;1.90;;;;;;;32.25;27.83;101565.05;107501;1254;98440;-60
2023/08/12 10:20:06;;;;;;;7.50;2.20;;;;;;;32.65;27.84;101572.92;107517;1253;111733;-62
2023/08/12 10:22:39;;;;;;;2.30;2.00;;;;;;;32.67;28.88;101566.59;107601;1251;109427;-61
2023/08/12 10:25:08;;;;;;;3.00;2.00;;;;;;;32.57;28.74;101566.45;107560;1255;106947;-62
2023/08/12 10:27:37;;;;;;;2.50;1.70;;;;;;;32.00;28.33;101565.71;107550;1252;97827;-61
2023/08/12 10:30:07;;;;;;;2.00;1.70;;;;;;;31.10;28.54;101561.64;107573;1253;97957;-60
2023/08/12 10:32:37;;;;;;;4.30;1.90;;;;;;;31.08;29.01;101554.12;107504;1255;110941;-60
2023/08/12 10:35:06;;;;;;;4.70;1.80;;;;;;;30.48;29.72;101558.48;107566;1254;108482;-62
2023/08/12 10:37:35;;;;;;;2.80;1.50;;;;;;;29.81;30.47;101562.33;107581;1255;109073;-61
2023/08/12 10:40:07;;;;;;;6.20;1.70;;;;;;;29.49;30.83;101558.51;107515;1256;97813;-61
2023/08/12 10:42:48;;;;;;;3.00;1.80;;;;;;;29.90;30.20;101553.55;107584;1254;97806;-61
2023/08/12 10:45:17;;;;;;;1.80;1.60;;;;;;;30.94;29.93;101546.02;107560;1251;111727;-60
2023/08/12 10:48:09;;;;;;;1.40;1.00;;;;;;;31.86;28.37;101545.35;107605;1251;109907;-60
2023/08/12 10:50:45;;;;;;;6.70;1.80;;;;;;;33.13;28.03;101541.16;107539;1251;108061;-60
2023/08/12 10:53:24;;;;;;;5.80;1.80;;;;;;;34.16;26.15;101543.04;107495;1251;97784;-60
2023/08/12 10:55:58;;;;;;;5.90;1.70;;;;;;;35.13;26.23;101540.75;107593;1251;98347;-60
2023/08/12 10:58:45;;;;;;;5.20;1.40;;;;;;;35.99;24.53;101533.52;107511;1253;112053;-61
2023/08/12 11:01:17;;;;;;;3.70;1.60;;;;;;;35.57;24.09;101541.22;107564;1253;109042;-62
2023/08/12 11:03:48;;;;;;;2.80;2.30;;;;;;;34.95;24.21;101541.63;107567;1254;107320;-63
2023/08/12 11:06:19;;;;;;;2.30;1.70;;;;;;;35.18;24.36;101537.94;107538;1252;97830;-60
2023/08/12 11:08:52;;;;;;;3.10;1.70;;;;;;;35.16;24.19;101533.48;107523;1253;99527;-60
2023/08/12 11:11:23;;;;;;;6.40;1.50;;;;;;;35.59;23.87;101531.14;107531;1256;112147;-62
2023/08/12 11:13:57;;;;;;;2.80;1.60;;;;;;;35.75;22.67;101533.86;107590;1251;109209;-61
2023/08/12 11:16:35;;;;;;;3.80;1.40;;;;;;;35.06;22.94;101533.16;107571;1251;108789;-61
2023/08/12 11:19:04;;;;;;;1.70;1.40;;;;;;;34.06;24.06;101538.53;107505;1252;97847;-61
2023/08/12 11:21:36;;;;;;;4.80;1.50;;;;;;;33.58;24.70;101534.16;107584;1253;98316;-61